F/V Eguzki Lore — ECGF — position and weather

sailwx.info

Track history (hours):
 
Tides and Currents Weather Stations Pressure Air Temp Water Temp Dewpoint Dewpoint Depression Visibility Wind Speed Wind Dir Waves Ship Positions

F/V Eguzki Lore

Last reported at 2017-Nov-19 19:02 UTC. Time now 2017-Nov-22 16:48 UTC.
Position N 43°20' W 002°25'.

Length 37 m.

Type: Fishing. MMSI: 224265000.

Date/timePositionNaut miles runAvg speedWind from/ knotsBaromVisibWave heightAir tempDewpointWater temp
2017-Nov-19 19:02N 43°20' W 002°25'0 0.0
2017-Nov-19 18:59N 43°20' W 002°25'0 0.9
2017-Nov-19 18:31N 43°20' W 002°25'3 6.6
2017-Nov-19 18:00N 43°23' W 002°23'5 9.7
2017-Nov-19 17:30N 43°27' W 002°20'510.2
2017-Nov-19 17:01N 43°32' W 002°16'510.5
2017-Nov-19 16:31N 43°36' W 002°13'510.4
2017-Nov-19 16:00N 43°41' W 002°09'510.5
2017-Nov-19 15:31N 43°46' W 002°06'510.6
2017-Nov-19 15:00N 43°50' W 002°03'510.8
2017-Nov-19 14:30N 43°55' W 001°60'611.2
2017-Nov-19 14:00N 44°00' W 001°56'510.6
2017-Nov-19 13:31N 44°05' W 001°52'4 8.8
2017-Nov-19 13:01N 44°08' W 001°49'1 2.0
2017-Nov-19 12:30N 44°07' W 001°49'2 3.8
2017-Nov-19 12:00N 44°06' W 001°49'2 3.7
2017-Nov-19 11:30N 44°04' W 001°49'2 3.7
2017-Nov-19 11:00N 44°02' W 001°50'2 3.8
2017-Nov-19 10:31N 43°60' W 001°50'2 4.5
2017-Nov-19 10:01N 43°58' W 001°50'1 1.1
2017-Nov-19 09:30N 43°57' W 001°50'2 3.7
2017-Nov-19 09:01N 43°59' W 001°50'2 3.7
2017-Nov-19 08:31N 44°01' W 001°50'2 3.8
2017-Nov-19 08:00N 44°03' W 001°50'2 3.7
2017-Nov-19 07:31N 44°05' W 001°50'2 3.7
2017-Nov-19 07:01N 44°07' W 001°50'2 3.8
2017-Nov-19 06:31N 44°09' W 001°50'2 4.3
2017-Nov-19 06:00N 44°11' W 001°50'1 2.1
2017-Nov-19 05:31N 44°12' W 001°50'2 3.8
2017-Nov-19 05:01N 44°10' W 001°50'2 3.8
2017-Nov-19 04:30N 44°08' W 001°50'2 3.8
2017-Nov-19 04:00N 44°06' W 001°50'2 3.8
2017-Nov-19 03:30N 44°04' W 001°50'2 3.8
2017-Nov-19 03:00N 44°02' W 001°50'2 3.8
2017-Nov-19 02:30N 44°00' W 001°50'2 4.2
2017-Nov-19 02:00N 43°58' W 001°50'3 6.6
2017-Nov-19 01:30N 43°58' W 001°54'2 3.0
2017-Nov-19 01:00N 43°60' W 001°54'2 3.9
2017-Nov-19 00:31N 44°02' W 001°54'2 3.9
2017-Nov-19 00:00N 44°04' W 001°54'2 3.8
2017-Nov-18 23:30N 44°05' W 001°54'2 3.8
2017-Nov-18 23:00N 44°07' W 001°54'3 3.8
2017-Nov-18 22:16N 44°10' W 001°55'1 4.9
2017-Nov-18 22:00N 44°11' W 001°56'6 3.2
2017-Nov-18 20:04N 44°17' W 001°56'0 3.8
2017-Nov-18 20:00N 44°18' W 001°56'8 4.0
2017-Nov-18 18:05N 44°25' W 001°51'0 3.1
2017-Nov-18 18:00N 44°25' W 001°51'1 1.5
2017-Nov-18 17:28N 44°24' W 001°50'2 3.7
2017-Nov-18 17:01N 44°22' W 001°50'2 3.8
2017-Nov-18 16:31N 44°21' W 001°49'2 3.8
2017-Nov-18 16:00N 44°19' W 001°48'2 3.8
2017-Nov-18 15:29N 44°17' W 001°48'2 3.9
2017-Nov-18 15:00N 44°15' W 001°49'2 3.9
2017-Nov-18 14:30N 44°13' W 001°49'2 3.6
2017-Nov-18 14:00N 44°11' W 001°50'1 1.6
2017-Nov-18 13:31N 44°11' W 001°50'2 3.6
2017-Nov-18 13:01N 44°09' W 001°50'2 3.6
2017-Nov-18 12:30N 44°07' W 001°50'2 3.6
2017-Nov-18 12:00N 44°05' W 001°50'2 3.6
2017-Nov-18 11:31N 44°03' W 001°50'2 3.6
2017-Nov-18 11:01N 44°02' W 001°50'2 3.7
2017-Nov-18 10:30N 43°60' W 001°50'2 4.2
2017-Nov-18 10:01N 43°58' W 001°50'4 7.3
2017-Nov-18 09:30N 44°01' W 001°51'1 1.5
2017-Nov-18 09:01N 44°02' W 001°51'2 3.8
2017-Nov-18 08:29N 44°04' W 001°51'2 3.8
2017-Nov-18 08:01N 44°06' W 001°52'2 3.9
2017-Nov-18 07:30N 44°08' W 001°52'2 3.9
2017-Nov-18 07:00N 44°10' W 001°52'2 4.2
2017-Nov-18 06:27N 44°12' W 001°52'0 0.3
2017-Nov-18 06:00N 44°12' W 001°52'1 2.8
2017-Nov-18 05:30N 44°13' W 001°52'2 4.0
2017-Nov-18 05:00N 44°15' W 001°52'3 4.0
2017-Nov-18 04:14N 44°18' W 001°52'1 4.0
2017-Nov-18 03:57N 44°19' W 001°52'3 4.0
2017-Nov-18 03:11N 44°22' W 001°52'1 4.0
2017-Nov-18 02:57N 44°23' W 001°52'4 4.4
2017-Nov-18 02:06N 44°27' W 001°52'0 4.9
2017-Nov-18 02:01N 44°27' W 001°52'1 1.8
2017-Nov-18 01:30N 44°26' W 001°52'2 3.7
2017-Nov-18 01:00N 44°24' W 001°52'4 3.8
2017-Nov-17 23:53N 44°20' W 001°51'2 3.8
2017-Nov-17 23:27N 44°18' W 001°51'2 3.9
2017-Nov-17 23:00N 44°16' W 001°51'3 4.0
2017-Nov-17 22:19N 44°14' W 001°51'1 4.4
2017-Nov-17 22:00N 44°12' W 001°51'1 1.8
2017-Nov-17 21:31N 44°11' W 001°51'2 3.8
2017-Nov-17 21:00N 44°09' W 001°50'2 3.8
2017-Nov-17 20:30N 44°07' W 001°50'2 3.9
2017-Nov-17 20:01N 44°06' W 001°50'2 3.9
2017-Nov-17 19:31N 44°04' W 001°51'2 3.9
2017-Nov-17 19:01N 44°02' W 001°51'2 3.9
2017-Nov-17 18:31N 43°60' W 001°52'2 3.4
2017-Nov-17 18:00N 43°58' W 001°52'1 1.4
2017-Nov-17 17:30N 43°59' W 001°52'2 3.9
2017-Nov-17 17:01N 44°01' W 001°52'2 3.8
2017-Nov-17 16:31N 44°03' W 001°51'2 3.8
2017-Nov-17 16:01N 44°05' W 001°52'2 3.9
2017-Nov-17 15:31N 44°07' W 001°52'2 3.9
2017-Nov-17 15:00N 44°09' W 001°52'2 4.0
2017-Nov-17 14:30N 44°11' W 001°52'1 2.0
2017-Nov-17 14:00N 44°12' W 001°52'0 0.8
2017-Nov-17 13:30N 44°11' W 001°52'2 3.7
2017-Nov-17 13:01N 44°09' W 001°52'2 3.8
2017-Nov-17 12:31N 44°07' W 001°51'2 3.7
2017-Nov-17 12:00N 44°06' W 001°51'2 3.7
2017-Nov-17 11:30N 44°04' W 001°51'2 3.8
2017-Nov-17 11:00N 44°02' W 001°51'2 3.9
2017-Nov-17 10:31N 43°60' W 001°51'2 4.2
2017-Nov-17 10:01N 43°58' W 001°52'1 1.1
2017-Nov-17 09:30N 43°58' W 001°52'2 4.0
2017-Nov-17 09:00N 44°00' W 001°51'2 3.9
2017-Nov-17 08:30N 44°02' W 001°51'2 3.9
2017-Nov-17 08:00N 44°04' W 001°51'2 4.0
2017-Nov-17 07:30N 44°06' W 001°51'2 4.0
2017-Nov-17 07:00N 44°08' W 001°51'2 4.0
2017-Nov-17 06:30N 44°10' W 001°51'2 4.9
2017-Nov-17 06:00N 44°12' W 001°53'1 1.6
2017-Nov-17 05:30N 44°13' W 001°53'2 3.9
2017-Nov-17 05:00N 44°15' W 001°53'2 4.0
2017-Nov-17 04:30N 44°17' W 001°53'2 4.1
2017-Nov-17 04:00N 44°19' W 001°53'2 4.1
2017-Nov-17 03:30N 44°21' W 001°53'2 4.0
2017-Nov-17 03:00N 44°23' W 001°53'2 4.0
2017-Nov-17 02:30N 44°25' W 001°53'2 4.1
2017-Nov-17 02:00N 44°27' W 001°53'1 2.9
2017-Nov-17 01:30N 44°29' W 001°53'2 4.1
2017-Nov-17 01:00N 44°31' W 001°53'2 4.1
2017-Nov-17 00:30N 44°33' W 001°53'2 4.1
2017-Nov-17 00:00N 44°35' W 001°54'2 4.1
2017-Nov-16 23:30N 44°37' W 001°53'2 4.0
2017-Nov-16 23:00N 44°39' W 001°54'2 4.8
2017-Nov-16 22:30N 44°41' W 001°53'1 2.7
2017-Nov-16 21:57N 44°43' W 001°53'2 4.0
2017-Nov-16 21:30N 44°44' W 001°54'2 4.0
2017-Nov-16 21:00N 44°46' W 001°56'2 4.0
2017-Nov-16 20:29N 44°48' W 001°58'2 4.0
2017-Nov-16 20:00N 44°49' W 001°60'2 4.0
2017-Nov-16 19:30N 44°50' W 002°02'2 3.9
2017-Nov-16 19:00N 44°52' W 002°04'2 3.2
2017-Nov-16 18:30N 44°52' W 002°06'1 1.6
2017-Nov-16 17:59N 44°53' W 002°07'2 3.7
2017-Nov-16 17:30N 44°54' W 002°09'2 3.6
2017-Nov-16 17:00N 44°55' W 002°10'2 3.7
2017-Nov-16 16:30N 44°57' W 002°12'2 3.7
2017-Nov-16 15:56N 44°58' W 002°14'2 3.7
2017-Nov-16 15:30N 44°60' W 002°16'2 4.2
2017-Nov-16 14:58N 45°01' W 002°18'5 6.9
2017-Nov-16 14:18N 45°06' W 002°18'0 0.7
2017-Nov-16 14:00N 45°06' W 002°18'2 4.0
2017-Nov-16 13:30N 45°06' W 002°21'2 4.0
2017-Nov-16 13:00N 45°07' W 002°24'2 3.9
2017-Nov-16 12:30N 45°08' W 002°26'2 4.1
2017-Nov-16 12:00N 45°09' W 002°28'2 4.1
2017-Nov-16 11:30N 45°10' W 002°31'4 4.3
2017-Nov-16 10:37N 45°10' W 002°36'0 0.5
2017-Nov-16 10:30N 45°10' W 002°36'1 3.0
2017-Nov-16 10:00N 45°11' W 002°38'4 3.9
2017-Nov-16 08:55N 45°12' W 002°44'2 3.9
2017-Nov-16 08:30N 45°13' W 002°46'2 3.9
2017-Nov-16 08:00N 45°13' W 002°49'2 3.9
2017-Nov-16 07:29N 45°14' W 002°51'2 4.2
2017-Nov-16 07:00N 45°15' W 002°54'1 2.9
2017-Nov-16 06:30N 45°17' W 002°55'2 3.8
2017-Nov-16 06:00N 45°19' W 002°55'  
2017-Nov-14 01:03N 44°11' W 002°38'111.3
2017-Nov-14 00:59N 44°10' W 002°37'611.3
2017-Nov-14 00:30N 44°05' W 002°36'511.2
2017-Nov-14 00:00N 43°59' W 002°34'611.1
2017-Nov-13 23:30N 43°54' W 002°32'511.0
2017-Nov-13 23:01N 43°49' W 002°31'611.1
2017-Nov-13 22:31N 43°43' W 002°29'611.1
2017-Nov-13 22:00N 43°38' W 002°27'18 0.9
2017-Nov-13 01:13N 43°20' W 002°25'0 0.0
2017-Nov-13 00:36N 43°20' W 002°25'0 0.0
2017-Nov-13 00:15N 43°20' W 002°25'0 0.0
2017-Nov-12 23:56N 43°20' W 002°25'0 0.0
2017-Nov-12 22:26N 43°20' W 002°25'0 0.0
2017-Nov-12 21:50N 43°20' W 002°25'0 0.0
2017-Nov-12 21:26N 43°20' W 002°25'0 0.0
2017-Nov-12 21:00N 43°20' W 002°25'0 0.0
2017-Nov-12 20:29N 43°20' W 002°25'0 0.0
2017-Nov-12 19:57N 43°20' W 002°25'0 0.0
2017-Nov-12 19:29N 43°20' W 002°25'0 0.0
2017-Nov-12 18:59N 43°20' W 002°25'2 4.3
2017-Nov-12 18:30N 43°22' W 002°25'1 1.8
2017-Nov-12 18:00N 43°21' W 002°24'1 2.2
2017-Nov-12 17:30N 43°21' W 002°25'3 5.1
2017-Nov-12 17:00N 43°23' W 002°23'510.7
2017-Nov-12 16:30N 43°28' W 002°19'510.7
2017-Nov-12 16:01N 43°32' W 002°15'510.6
2017-Nov-12 15:30N 43°37' W 002°12'510.4
2017-Nov-12 15:01N 43°41' W 002°08'510.3
2017-Nov-12 14:30N 43°46' W 002°04'510.0
2017-Nov-12 14:01N 43°50' W 001°60'2 3.1
2017-Nov-12 13:30N 43°51' W 001°58'2 3.2
2017-Nov-12 13:00N 43°51' W 001°56'2 3.8
2017-Nov-12 12:31N 43°51' W 001°53'2 3.9
2017-Nov-12 12:00N 43°51' W 001°51'2 3.8
2017-Nov-12 11:30N 43°50' W 001°48'2 3.8
2017-Nov-12 11:00N 43°49' W 001°46'2 4.0
2017-Nov-12 10:30N 43°47' W 001°45'2 4.5
2017-Nov-12 10:00N 43°45' W 001°44'1 2.0
2017-Nov-12 09:31N 43°45' W 001°45'2 3.9
2017-Nov-12 09:00N 43°47' W 001°46'2 4.0
2017-Nov-12 08:30N 43°49' W 001°46'2 3.9
2017-Nov-12 08:00N 43°51' W 001°46'2 4.0
2017-Nov-12 07:30N 43°53' W 001°46'2 4.0
2017-Nov-12 07:00N 43°55' W 001°46'2 4.0
2017-Nov-12 06:30N 43°57' W 001°45'2 4.2
2017-Nov-12 05:58N 43°59' W 001°44'2 5.2
2017-Nov-12 05:31N 43°60' W 001°47'1 2.2
2017-Nov-12 05:00N 43°59' W 001°48'2 3.9
2017-Nov-12 04:30N 43°57' W 001°49'2 3.9
2017-Nov-12 04:00N 43°55' W 001°50'2 3.8
2017-Nov-12 03:29N 43°53' W 001°51'2 3.8
2017-Nov-12 03:01N 43°52' W 001°51'2 3.9
2017-Nov-12 02:22N 43°49' W 001°53'1 4.0
2017-Nov-12 02:01N 43°48' W 001°54'2 4.0
2017-Nov-12 01:30N 43°47' W 001°56'2 3.4
2017-Nov-12 01:00N 43°46' W 001°57'1 2.8
2017-Nov-12 00:30N 43°47' W 001°57'2 3.8
2017-Nov-12 00:00N 43°48' W 001°55'2 3.8
2017-Nov-11 23:30N 43°49' W 001°53'2 3.8
2017-Nov-11 23:00N 43°49' W 001°51'2 3.7
2017-Nov-11 22:30N 43°49' W 001°48'2 3.8
2017-Nov-11 22:00N 43°47' W 001°46'2 3.8
2017-Nov-11 21:29N 43°45' W 001°46'2 3.8
2017-Nov-11 21:00N 43°43' W 001°46'3 5.2
2017-Nov-11 20:30N 43°41' W 001°48'1 2.0
2017-Nov-11 20:00N 43°42' W 001°48'2 3.9
2017-Nov-11 19:31N 43°44' W 001°48'2 3.9
2017-Nov-11 19:00N 43°46' W 001°47'2 4.0
2017-Nov-11 18:30N 43°48' W 001°47'2 3.9
2017-Nov-11 18:00N 43°50' W 001°48'2 4.0
2017-Nov-11 17:24N 43°52' W 001°48'2 4.0
2017-Nov-11 17:00N 43°53' W 001°47'2 4.2
2017-Nov-11 16:30N 43°55' W 001°46'1 1.6
2017-Nov-11 16:00N 43°56' W 001°46'10 3.9
2017-Nov-11 13:23N 44°07' W 001°47'4 4.7
2017-Nov-11 12:34N 44°10' W 001°47'1 2.3
2017-Nov-11 12:14N 44°11' W 001°48'8 3.8
2017-Nov-11 10:04N 44°19' W 001°47'0 3.9
2017-Nov-11 09:59N 44°19' W 001°46'3 4.1
2017-Nov-11 09:18N 44°22' W 001°44'4 5.3
2017-Nov-11 08:28N 44°25' W 001°41'2 4.2
2017-Nov-11 07:59N 44°27' W 001°39'2 4.0
2017-Nov-11 07:21N 44°29' W 001°38'2 3.9
2017-Nov-11 06:58N 44°31' W 001°37'3 3.8
2017-Nov-11 06:09N 44°34' W 001°38'1 4.0
2017-Nov-11 05:57N 44°35' W 001°39'2 3.9
2017-Nov-11 05:29N 44°36' W 001°40'2 4.1
2017-Nov-11 04:53N 44°38' W 001°42'  
Track history (hours):
 
Tides and Currents Weather Stations Pressure Air Temp Water Temp Dewpoint Dewpoint Depression Visibility Wind Speed Wind Dir Waves Ship Positions

F/V Eguzki Lore

Last reported at 2017-Nov-19 19:02 UTC. Time now 2017-Nov-22 16:48 UTC.
Position N 43°20' W 002°25'.

Length 37 m.

Type: Fishing. MMSI: 224265000.

Date/timePositionNaut miles runAvg speedWind from/ knotsBaromVisibWave heightAir tempDewpointWater temp
2017-Nov-19 19:02N 43°20' W 002°25'0 0.0
2017-Nov-19 18:59N 43°20' W 002°25'0 0.9
2017-Nov-19 18:31N 43°20' W 002°25'3 6.6
2017-Nov-19 18:00N 43°23' W 002°23'5 9.7
2017-Nov-19 17:30N 43°27' W 002°20'510.2
2017-Nov-19 17:01N 43°32' W 002°16'510.5
2017-Nov-19 16:31N 43°36' W 002°13'510.4
2017-Nov-19 16:00N 43°41' W 002°09'510.5
2017-Nov-19 15:31N 43°46' W 002°06'510.6
2017-Nov-19 15:00N 43°50' W 002°03'510.8
2017-Nov-19 14:30N 43°55' W 001°60'611.2
2017-Nov-19 14:00N 44°00' W 001°56'510.6
2017-Nov-19 13:31N 44°05' W 001°52'4 8.8
2017-Nov-19 13:01N 44°08' W 001°49'1 2.0
2017-Nov-19 12:30N 44°07' W 001°49'2 3.8
2017-Nov-19 12:00N 44°06' W 001°49'2 3.7
2017-Nov-19 11:30N 44°04' W 001°49'2 3.7
2017-Nov-19 11:00N 44°02' W 001°50'2 3.8
2017-Nov-19 10:31N 43°60' W 001°50'2 4.5
2017-Nov-19 10:01N 43°58' W 001°50'1 1.1
2017-Nov-19 09:30N 43°57' W 001°50'2 3.7
2017-Nov-19 09:01N 43°59' W 001°50'2 3.7
2017-Nov-19 08:31N 44°01' W 001°50'2 3.8
2017-Nov-19 08:00N 44°03' W 001°50'2 3.7
2017-Nov-19 07:31N 44°05' W 001°50'2 3.7
2017-Nov-19 07:01N 44°07' W 001°50'2 3.8
2017-Nov-19 06:31N 44°09' W 001°50'2 4.3
2017-Nov-19 06:00N 44°11' W 001°50'1 2.1
2017-Nov-19 05:31N 44°12' W 001°50'2 3.8
2017-Nov-19 05:01N 44°10' W 001°50'2 3.8
2017-Nov-19 04:30N 44°08' W 001°50'2 3.8
2017-Nov-19 04:00N 44°06' W 001°50'2 3.8
2017-Nov-19 03:30N 44°04' W 001°50'2 3.8
2017-Nov-19 03:00N 44°02' W 001°50'2 3.8
2017-Nov-19 02:30N 44°00' W 001°50'2 4.2
2017-Nov-19 02:00N 43°58' W 001°50'3 6.6
2017-Nov-19 01:30N 43°58' W 001°54'2 3.0
2017-Nov-19 01:00N 43°60' W 001°54'2 3.9
2017-Nov-19 00:31N 44°02' W 001°54'2 3.9
2017-Nov-19 00:00N 44°04' W 001°54'2 3.8
2017-Nov-18 23:30N 44°05' W 001°54'2 3.8
2017-Nov-18 23:00N 44°07' W 001°54'3 3.8
2017-Nov-18 22:16N 44°10' W 001°55'1 4.9
2017-Nov-18 22:00N 44°11' W 001°56'6 3.2
2017-Nov-18 20:04N 44°17' W 001°56'0 3.8
2017-Nov-18 20:00N 44°18' W 001°56'8 4.0
2017-Nov-18 18:05N 44°25' W 001°51'0 3.1
2017-Nov-18 18:00N 44°25' W 001°51'1 1.5
2017-Nov-18 17:28N 44°24' W 001°50'2 3.7
2017-Nov-18 17:01N 44°22' W 001°50'2 3.8
2017-Nov-18 16:31N 44°21' W 001°49'2 3.8
2017-Nov-18 16:00N 44°19' W 001°48'2 3.8
2017-Nov-18 15:29N 44°17' W 001°48'2 3.9
2017-Nov-18 15:00N 44°15' W 001°49'2 3.9
2017-Nov-18 14:30N 44°13' W 001°49'2 3.6
2017-Nov-18 14:00N 44°11' W 001°50'1 1.6
2017-Nov-18 13:31N 44°11' W 001°50'2 3.6
2017-Nov-18 13:01N 44°09' W 001°50'2 3.6
2017-Nov-18 12:30N 44°07' W 001°50'2 3.6
2017-Nov-18 12:00N 44°05' W 001°50'2 3.6
2017-Nov-18 11:31N 44°03' W 001°50'2 3.6
2017-Nov-18 11:01N 44°02' W 001°50'2 3.7
2017-Nov-18 10:30N 43°60' W 001°50'2 4.2
2017-Nov-18 10:01N 43°58' W 001°50'4 7.3
2017-Nov-18 09:30N 44°01' W 001°51'1 1.5
2017-Nov-18 09:01N 44°02' W 001°51'2 3.8
2017-Nov-18 08:29N 44°04' W 001°51'2 3.8
2017-Nov-18 08:01N 44°06' W 001°52'2 3.9
2017-Nov-18 07:30N 44°08' W 001°52'2 3.9
2017-Nov-18 07:00N 44°10' W 001°52'2 4.2
2017-Nov-18 06:27N 44°12' W 001°52'0 0.3
2017-Nov-18 06:00N 44°12' W 001°52'1 2.8
2017-Nov-18 05:30N 44°13' W 001°52'2 4.0
2017-Nov-18 05:00N 44°15' W 001°52'3 4.0
2017-Nov-18 04:14N 44°18' W 001°52'1 4.0
2017-Nov-18 03:57N 44°19' W 001°52'3 4.0
2017-Nov-18 03:11N 44°22' W 001°52'1 4.0
2017-Nov-18 02:57N 44°23' W 001°52'4 4.4
2017-Nov-18 02:06N 44°27' W 001°52'0 4.9
2017-Nov-18 02:01N 44°27' W 001°52'1 1.8
2017-Nov-18 01:30N 44°26' W 001°52'2 3.7
2017-Nov-18 01:00N 44°24' W 001°52'4 3.8
2017-Nov-17 23:53N 44°20' W 001°51'2 3.8
2017-Nov-17 23:27N 44°18' W 001°51'2 3.9
2017-Nov-17 23:00N 44°16' W 001°51'3 4.0
2017-Nov-17 22:19N 44°14' W 001°51'1 4.4
2017-Nov-17 22:00N 44°12' W 001°51'1 1.8
2017-Nov-17 21:31N 44°11' W 001°51'2 3.8
2017-Nov-17 21:00N 44°09' W 001°50'2 3.8
2017-Nov-17 20:30N 44°07' W 001°50'2 3.9
2017-Nov-17 20:01N 44°06' W 001°50'2 3.9
2017-Nov-17 19:31N 44°04' W 001°51'2 3.9
2017-Nov-17 19:01N 44°02' W 001°51'2 3.9
2017-Nov-17 18:31N 43°60' W 001°52'2 3.4
2017-Nov-17 18:00N 43°58' W 001°52'1 1.4
2017-Nov-17 17:30N 43°59' W 001°52'2 3.9
2017-Nov-17 17:01N 44°01' W 001°52'2 3.8
2017-Nov-17 16:31N 44°03' W 001°51'2 3.8
2017-Nov-17 16:01N 44°05' W 001°52'2 3.9
2017-Nov-17 15:31N 44°07' W 001°52'2 3.9
2017-Nov-17 15:00N 44°09' W 001°52'2 4.0
2017-Nov-17 14:30N 44°11' W 001°52'1 2.0
2017-Nov-17 14:00N 44°12' W 001°52'0 0.8
2017-Nov-17 13:30N 44°11' W 001°52'2 3.7
2017-Nov-17 13:01N 44°09' W 001°52'2 3.8
2017-Nov-17 12:31N 44°07' W 001°51'2 3.7
2017-Nov-17 12:00N 44°06' W 001°51'2 3.7
2017-Nov-17 11:30N 44°04' W 001°51'2 3.8
2017-Nov-17 11:00N 44°02' W 001°51'2 3.9
2017-Nov-17 10:31N 43°60' W 001°51'2 4.2
2017-Nov-17 10:01N 43°58' W 001°52'1 1.1
2017-Nov-17 09:30N 43°58' W 001°52'2 4.0
2017-Nov-17 09:00N 44°00' W 001°51'2 3.9
2017-Nov-17 08:30N 44°02' W 001°51'2 3.9
2017-Nov-17 08:00N 44°04' W 001°51'2 4.0
2017-Nov-17 07:30N 44°06' W 001°51'2 4.0
2017-Nov-17 07:00N 44°08' W 001°51'2 4.0
2017-Nov-17 06:30N 44°10' W 001°51'2 4.9
2017-Nov-17 06:00N 44°12' W 001°53'1 1.6
2017-Nov-17 05:30N 44°13' W 001°53'2 3.9
2017-Nov-17 05:00N 44°15' W 001°53'2 4.0
2017-Nov-17 04:30N 44°17' W 001°53'2 4.1
2017-Nov-17 04:00N 44°19' W 001°53'2 4.1
2017-Nov-17 03:30N 44°21' W 001°53'2 4.0
2017-Nov-17 03:00N 44°23' W 001°53'2 4.0
2017-Nov-17 02:30N 44°25' W 001°53'2 4.1
2017-Nov-17 02:00N 44°27' W 001°53'1 2.9
2017-Nov-17 01:30N 44°29' W 001°53'2 4.1
2017-Nov-17 01:00N 44°31' W 001°53'2 4.1
2017-Nov-17 00:30N 44°33' W 001°53'2 4.1
2017-Nov-17 00:00N 44°35' W 001°54'2 4.1
2017-Nov-16 23:30N 44°37' W 001°53'2 4.0
2017-Nov-16 23:00N 44°39' W 001°54'2 4.8
2017-Nov-16 22:30N 44°41' W 001°53'1 2.7
2017-Nov-16 21:57N 44°43' W 001°53'2 4.0
2017-Nov-16 21:30N 44°44' W 001°54'2 4.0
2017-Nov-16 21:00N 44°46' W 001°56'2 4.0
2017-Nov-16 20:29N 44°48' W 001°58'2 4.0
2017-Nov-16 20:00N 44°49' W 001°60'2 4.0
2017-Nov-16 19:30N 44°50' W 002°02'2 3.9
2017-Nov-16 19:00N 44°52' W 002°04'2 3.2
2017-Nov-16 18:30N 44°52' W 002°06'1 1.6
2017-Nov-16 17:59N 44°53' W 002°07'2 3.7
2017-Nov-16 17:30N 44°54' W 002°09'2 3.6
2017-Nov-16 17:00N 44°55' W 002°10'2 3.7
2017-Nov-16 16:30N 44°57' W 002°12'2 3.7
2017-Nov-16 15:56N 44°58' W 002°14'2 3.7
2017-Nov-16 15:30N 44°60' W 002°16'2 4.2
2017-Nov-16 14:58N 45°01' W 002°18'5 6.9
2017-Nov-16 14:18N 45°06' W 002°18'0 0.7
2017-Nov-16 14:00N 45°06' W 002°18'2 4.0
2017-Nov-16 13:30N 45°06' W 002°21'2 4.0
2017-Nov-16 13:00N 45°07' W 002°24'2 3.9
2017-Nov-16 12:30N 45°08' W 002°26'2 4.1
2017-Nov-16 12:00N 45°09' W 002°28'2 4.1
2017-Nov-16 11:30N 45°10' W 002°31'4 4.3
2017-Nov-16 10:37N 45°10' W 002°36'0 0.5
2017-Nov-16 10:30N 45°10' W 002°36'1 3.0
2017-Nov-16 10:00N 45°11' W 002°38'4 3.9
2017-Nov-16 08:55N 45°12' W 002°44'2 3.9
2017-Nov-16 08:30N 45°13' W 002°46'2 3.9
2017-Nov-16 08:00N 45°13' W 002°49'2 3.9
2017-Nov-16 07:29N 45°14' W 002°51'2 4.2
2017-Nov-16 07:00N 45°15' W 002°54'1 2.9
2017-Nov-16 06:30N 45°17' W 002°55'2 3.8
2017-Nov-16 06:00N 45°19' W 002°55'  
2017-Nov-14 01:03N 44°11' W 002°38'111.3
2017-Nov-14 00:59N 44°10' W 002°37'611.3
2017-Nov-14 00:30N 44°05' W 002°36'511.2
2017-Nov-14 00:00N 43°59' W 002°34'611.1
2017-Nov-13 23:30N 43°54' W 002°32'511.0
2017-Nov-13 23:01N 43°49' W 002°31'611.1
2017-Nov-13 22:31N 43°43' W 002°29'611.1
2017-Nov-13 22:00N 43°38' W 002°27'18 0.9
2017-Nov-13 01:13N 43°20' W 002°25'0 0.0
2017-Nov-13 00:36N 43°20' W 002°25'0 0.0
2017-Nov-13 00:15N 43°20' W 002°25'0 0.0
2017-Nov-12 23:56N 43°20' W 002°25'0 0.0
2017-Nov-12 22:26N 43°20' W 002°25'0 0.0
2017-Nov-12 21:50N 43°20' W 002°25'0 0.0
2017-Nov-12 21:26N 43°20' W 002°25'0 0.0
2017-Nov-12 21:00N 43°20' W 002°25'0 0.0
2017-Nov-12 20:29N 43°20' W 002°25'0 0.0
2017-Nov-12 19:57N 43°20' W 002°25'0 0.0
2017-Nov-12 19:29N 43°20' W 002°25'0 0.0
2017-Nov-12 18:59N 43°20' W 002°25'2 4.3
2017-Nov-12 18:30N 43°22' W 002°25'1 1.8
2017-Nov-12 18:00N 43°21' W 002°24'1 2.2
2017-Nov-12 17:30N 43°21' W 002°25'3 5.1
2017-Nov-12 17:00N 43°23' W 002°23'510.7
2017-Nov-12 16:30N 43°28' W 002°19'510.7
2017-Nov-12 16:01N 43°32' W 002°15'510.6
2017-Nov-12 15:30N 43°37' W 002°12'510.4
2017-Nov-12 15:01N 43°41' W 002°08'510.3
2017-Nov-12 14:30N 43°46' W 002°04'510.0
2017-Nov-12 14:01N 43°50' W 001°60'2 3.1
2017-Nov-12 13:30N 43°51' W 001°58'2 3.2
2017-Nov-12 13:00N 43°51' W 001°56'2 3.8
2017-Nov-12 12:31N 43°51' W 001°53'2 3.9
2017-Nov-12 12:00N 43°51' W 001°51'2 3.8
2017-Nov-12 11:30N 43°50' W 001°48'2 3.8
2017-Nov-12 11:00N 43°49' W 001°46'2 4.0
2017-Nov-12 10:30N 43°47' W 001°45'2 4.5
2017-Nov-12 10:00N 43°45' W 001°44'1 2.0
2017-Nov-12 09:31N 43°45' W 001°45'2 3.9
2017-Nov-12 09:00N 43°47' W 001°46'2 4.0
2017-Nov-12 08:30N 43°49' W 001°46'2 3.9
2017-Nov-12 08:00N 43°51' W 001°46'2 4.0
2017-Nov-12 07:30N 43°53' W 001°46'2 4.0
2017-Nov-12 07:00N 43°55' W 001°46'2 4.0
2017-Nov-12 06:30N 43°57' W 001°45'2 4.2
2017-Nov-12 05:58N 43°59' W 001°44'2 5.2
2017-Nov-12 05:31N 43°60' W 001°47'1 2.2
2017-Nov-12 05:00N 43°59' W 001°48'2 3.9
2017-Nov-12 04:30N 43°57' W 001°49'2 3.9
2017-Nov-12 04:00N 43°55' W 001°50'2 3.8
2017-Nov-12 03:29N 43°53' W 001°51'2 3.8
2017-Nov-12 03:01N 43°52' W 001°51'2 3.9
2017-Nov-12 02:22N 43°49' W 001°53'1 4.0
2017-Nov-12 02:01N 43°48' W 001°54'2 4.0
2017-Nov-12 01:30N 43°47' W 001°56'2 3.4
2017-Nov-12 01:00N 43°46' W 001°57'1 2.8
2017-Nov-12 00:30N 43°47' W 001°57'2 3.8
2017-Nov-12 00:00N 43°48' W 001°55'2 3.8
2017-Nov-11 23:30N 43°49' W 001°53'2 3.8
2017-Nov-11 23:00N 43°49' W 001°51'2 3.7
2017-Nov-11 22:30N 43°49' W 001°48'2 3.8
2017-Nov-11 22:00N 43°47' W 001°46'2 3.8
2017-Nov-11 21:29N 43°45' W 001°46'2 3.8
2017-Nov-11 21:00N 43°43' W 001°46'3 5.2
2017-Nov-11 20:30N 43°41' W 001°48'1 2.0
2017-Nov-11 20:00N 43°42' W 001°48'2 3.9
2017-Nov-11 19:31N 43°44' W 001°48'2 3.9
2017-Nov-11 19:00N 43°46' W 001°47'2 4.0
2017-Nov-11 18:30N 43°48' W 001°47'2 3.9
2017-Nov-11 18:00N 43°50' W 001°48'2 4.0
2017-Nov-11 17:24N 43°52' W 001°48'2 4.0
2017-Nov-11 17:00N 43°53' W 001°47'2 4.2
2017-Nov-11 16:30N 43°55' W 001°46'1 1.6
2017-Nov-11 16:00N 43°56' W 001°46'10 3.9
2017-Nov-11 13:23N 44°07' W 001°47'4 4.7
2017-Nov-11 12:34N 44°10' W 001°47'1 2.3
2017-Nov-11 12:14N 44°11' W 001°48'8 3.8
2017-Nov-11 10:04N 44°19' W 001°47'0 3.9
2017-Nov-11 09:59N 44°19' W 001°46'3 4.1
2017-Nov-11 09:18N 44°22' W 001°44'4 5.3
2017-Nov-11 08:28N 44°25' W 001°41'2 4.2
2017-Nov-11 07:59N 44°27' W 001°39'2 4.0
2017-Nov-11 07:21N 44°29' W 001°38'2 3.9
2017-Nov-11 06:58N 44°31' W 001°37'3 3.8
2017-Nov-11 06:09N 44°34' W 001°38'1 4.0
2017-Nov-11 05:57N 44°35' W 001°39'2 3.9
2017-Nov-11 05:29N 44°36' W 001°40'2 4.1
2017-Nov-11 04:53N 44°38' W 001°42'  

Dump ship's entire track history